createdAt,value
2018-09-09T00:00:34.482Z,0.00
2018-09-09T00:01:34.418Z,0.00
2018-09-09T00:02:34.384Z,0.00
2018-09-09T00:03:34.336Z,0.00
2018-09-09T00:04:34.298Z,0.00
2018-09-09T00:05:34.306Z,0.00
2018-09-09T00:06:34.307Z,0.00
2018-09-09T00:07:34.198Z,0.00
2018-09-09T00:08:34.145Z,0.00
2018-09-09T00:09:34.116Z,0.00
2018-09-09T00:10:34.085Z,0.00
2018-09-09T00:11:34.035Z,0.00
2018-09-09T00:12:34.002Z,0.00
2018-09-09T00:13:33.967Z,0.00
2018-09-09T00:14:33.924Z,0.00
2018-09-09T00:15:33.897Z,0.00
2018-09-09T00:16:33.842Z,0.00
2018-09-09T00:17:33.822Z,0.00
2018-09-09T00:18:33.779Z,0.00
2018-09-09T00:19:33.732Z,0.00
2018-09-09T00:20:33.684Z,0.00
2018-09-09T00:21:33.669Z,0.00
2018-09-09T00:22:33.639Z,0.00
2018-09-09T00:23:33.578Z,0.00
2018-09-09T00:24:33.538Z,0.00
2018-09-09T00:25:33.495Z,0.00
2018-09-09T00:26:33.475Z,0.00
2018-09-09T00:27:33.433Z,0.00
2018-09-09T00:28:33.385Z,0.00
2018-09-09T00:29:33.949Z,0.00
2018-09-09T00:30:33.308Z,0.00
2018-09-09T00:31:33.279Z,0.00
2018-09-09T00:32:33.232Z,0.00
2018-09-09T00:33:33.207Z,0.00
2018-09-09T00:34:33.162Z,0.00
2018-09-09T00:35:33.133Z,0.00
2018-09-09T00:36:33.087Z,0.00
2018-09-09T00:37:33.052Z,0.00
2018-09-09T00:38:33.006Z,0.00
2018-09-09T00:39:33.055Z,0.00
2018-09-09T00:40:32.941Z,0.00
2018-09-09T00:41:32.891Z,0.00
2018-09-09T00:42:32.850Z,0.00
2018-09-09T00:43:32.821Z,0.00
2018-09-09T00:44:32.778Z,0.00
2018-09-09T00:45:32.746Z,0.00
2018-09-09T00:46:32.727Z,0.00
2018-09-09T00:47:32.659Z,0.00
2018-09-09T00:48:32.655Z,0.00
2018-09-09T00:49:32.609Z,0.00
2018-09-09T00:50:32.546Z,0.00
2018-09-09T00:51:32.502Z,0.00
2018-09-09T00:52:32.471Z,0.00
2018-09-09T00:53:32.439Z,0.00
2018-09-09T00:54:32.397Z,0.00
2018-09-09T00:55:32.444Z,0.00
2018-09-09T00:56:32.318Z,0.00
2018-09-09T00:57:32.310Z,0.00
2018-09-09T00:58:32.244Z,0.00
2018-09-09T00:59:32.199Z,0.00
2018-09-09T01:00:32.158Z,0.00
2018-09-09T01:01:32.129Z,0.00
2018-09-09T01:02:32.080Z,0.00
2018-09-09T01:03:32.037Z,0.00
2018-09-09T01:04:32.028Z,0.00
2018-09-09T01:05:31.957Z,0.00
2018-09-09T01:06:31.930Z,0.00
2018-09-09T01:07:31.899Z,0.00
2018-09-09T01:08:31.921Z,0.00
2018-09-09T01:09:31.812Z,0.00
2018-09-09T01:10:31.774Z,0.00
2018-09-09T01:11:31.735Z,0.00
2018-09-09T01:14:05.710Z,0.00
2018-09-09T01:15:05.465Z,0.00
2018-09-09T01:16:58.530Z,0.00
2018-09-09T01:17:58.410Z,0.00
2018-09-09T01:19:51.442Z,0.00
2018-09-09T01:20:51.438Z,0.00
2018-09-09T01:24:16.882Z,0.00
2018-09-09T01:25:16.870Z,0.00
2018-09-09T01:27:09.856Z,0.00
2018-09-09T01:28:09.768Z,0.00
2018-09-09T01:30:03.199Z,0.00
2018-09-09T01:31:01.934Z,0.00
2018-09-09T01:32:01.564Z,0.00
2018-09-09T01:33:02.715Z,0.00
2018-09-09T01:34:01.056Z,0.00
2018-09-09T01:35:00.444Z,0.00
2018-09-09T01:36:00.475Z,0.00
2018-09-09T01:37:00.356Z,0.00
2018-09-09T01:38:00.341Z,0.00
2018-09-09T01:39:00.280Z,0.00
2018-09-09T01:40:00.252Z,0.00
2018-09-09T01:41:00.218Z,0.00
2018-09-09T01:42:00.181Z,0.00
2018-09-09T01:43:00.283Z,0.00
2018-09-09T01:44:00.103Z,0.00
2018-09-09T01:45:00.058Z,0.00
2018-09-09T01:46:00.033Z,0.00
2018-09-09T01:46:59.989Z,0.00
2018-09-09T01:47:59.986Z,0.00
2018-09-09T01:48:59.907Z,0.00
2018-09-09T01:49:59.866Z,0.00
2018-09-09T01:50:59.817Z,0.00
2018-09-09T01:51:59.798Z,0.00
2018-09-09T01:52:59.743Z,0.00
2018-09-09T01:53:59.708Z,0.00
2018-09-09T01:54:59.691Z,0.00
2018-09-09T01:55:59.633Z,0.00
2018-09-09T01:56:59.609Z,0.00
2018-09-09T01:57:59.544Z,0.00
2018-09-09T01:58:59.505Z,0.00
2018-09-09T01:59:59.487Z,0.00
2018-09-09T02:00:59.443Z,0.00
2018-09-09T02:01:59.401Z,0.00
2018-09-09T02:02:59.359Z,0.00
2018-09-09T02:03:59.330Z,0.00
2018-09-09T02:04:59.282Z,0.00
2018-09-09T02:05:59.261Z,0.00
2018-09-09T02:06:59.223Z,0.00
2018-09-09T02:07:59.239Z,0.00
2018-09-09T02:08:59.137Z,0.00
2018-09-09T02:09:59.113Z,0.00
2018-09-09T02:10:59.056Z,0.00
2018-09-09T02:11:59.019Z,0.00
2018-09-09T02:12:58.977Z,0.00
2018-09-09T02:13:58.953Z,0.00
2018-09-09T02:14:58.922Z,0.00
2018-09-09T02:15:58.865Z,0.00
2018-09-09T02:16:58.935Z,0.00
2018-09-09T02:17:58.788Z,0.00
2018-09-09T02:18:58.758Z,0.00
2018-09-09T02:19:58.712Z,0.00
2018-09-09T02:20:58.672Z,0.00
2018-09-09T02:21:58.635Z,0.00
2018-09-09T02:22:58.608Z,0.00
2018-09-09T02:23:58.612Z,0.00
2018-09-09T02:24:58.534Z,0.00
2018-09-09T02:25:58.527Z,0.00
2018-09-09T02:26:58.442Z,0.00
2018-09-09T02:27:58.491Z,0.00
2018-09-09T02:28:58.369Z,0.00
2018-09-09T02:29:58.320Z,0.00
2018-09-09T02:30:58.302Z,0.00
2018-09-09T02:31:58.339Z,0.00
2018-09-09T02:32:58.204Z,0.00
2018-09-09T02:33:58.159Z,0.00
2018-09-09T02:34:58.137Z,0.00
2018-09-09T02:35:58.192Z,0.00
2018-09-09T02:36:58.053Z,0.00
2018-09-09T02:37:58.041Z,0.00
2018-09-09T02:38:57.972Z,0.00
2018-09-09T02:39:57.931Z,0.00
2018-09-09T02:40:57.938Z,0.00
2018-09-09T02:41:57.863Z,0.00
2018-09-09T02:42:57.863Z,0.00
2018-09-09T02:43:57.797Z,0.00
2018-09-09T02:44:57.750Z,0.00
2018-09-09T02:45:57.716Z,0.00
2018-09-09T02:46:57.668Z,0.00
2018-09-09T02:47:57.625Z,0.00
2018-09-09T02:48:57.628Z,0.00
2018-09-09T02:49:57.543Z,0.00
2018-09-09T02:50:57.523Z,0.00
2018-09-09T02:51:57.498Z,0.00
2018-09-09T02:52:57.490Z,0.00
2018-09-09T02:53:57.400Z,0.00
2018-09-09T02:54:57.392Z,0.00
2018-09-09T02:55:57.326Z,0.00
2018-09-09T02:56:57.280Z,0.00
2018-09-09T02:57:57.248Z,0.00
2018-09-09T02:58:57.254Z,0.00
2018-09-09T02:59:57.255Z,0.00
2018-09-09T03:00:57.144Z,0.00
2018-09-09T03:01:57.088Z,0.00
2018-09-09T03:02:57.066Z,0.00
2018-09-09T03:03:57.018Z,0.00
2018-09-09T03:04:56.990Z,0.00
2018-09-09T03:05:56.952Z,0.00
2018-09-09T03:06:56.900Z,0.00
2018-09-09T03:07:56.863Z,0.00
2018-09-09T03:08:56.823Z,0.00
2018-09-09T03:09:56.780Z,0.00
2018-09-09T03:10:56.733Z,0.00
2018-09-09T03:11:56.713Z,0.00
2018-09-09T03:12:56.677Z,0.00
2018-09-09T03:13:56.637Z,0.00
2018-09-09T03:14:56.586Z,0.00
2018-09-09T03:15:56.543Z,0.00
2018-09-09T03:16:56.520Z,0.00
2018-09-09T03:17:56.475Z,0.00
2018-09-09T03:18:56.438Z,0.00
2018-09-09T03:19:56.411Z,0.00
2018-09-09T03:20:56.364Z,0.00
2018-09-09T03:21:56.329Z,0.00
2018-09-09T03:22:56.272Z,0.00
2018-09-09T03:23:56.274Z,0.00
2018-09-09T03:24:56.200Z,0.00
2018-09-09T03:25:56.174Z,0.00
2018-09-09T03:26:56.129Z,0.00
2018-09-09T03:27:56.106Z,0.00
2018-09-09T03:28:56.046Z,0.00
2018-09-09T03:29:56.022Z,0.00
2018-09-09T03:30:55.980Z,0.00
2018-09-09T03:31:55.938Z,0.00
2018-09-09T03:32:55.918Z,0.00
2018-09-09T03:33:55.900Z,0.00
2018-09-09T03:34:55.828Z,0.00
2018-09-09T03:35:55.861Z,0.00
2018-09-09T03:36:55.771Z,0.00
2018-09-09T03:37:55.709Z,0.00
2018-09-09T03:38:55.719Z,0.00
2018-09-09T03:39:55.641Z,0.00
2018-09-09T03:40:55.601Z,0.00
2018-09-09T03:41:55.562Z,0.00
2018-09-09T03:42:55.517Z,0.00
2018-09-09T03:43:55.498Z,0.00
2018-09-09T03:44:55.479Z,0.00
2018-09-09T03:45:55.413Z,0.00
2018-09-09T03:46:55.373Z,0.00
2018-09-09T03:47:55.335Z,0.00
2018-09-09T03:48:55.296Z,0.00
2018-09-09T03:49:55.256Z,0.00
2018-09-09T03:50:55.285Z,0.00
2018-09-09T03:51:55.248Z,0.00
2018-09-09T03:52:55.136Z,0.00
2018-09-09T03:53:55.105Z,0.00
2018-09-09T03:54:55.057Z,0.00
2018-09-09T03:55:55.133Z,0.00
2018-09-09T03:56:55.027Z,0.00
2018-09-09T03:57:55.046Z,0.00
2018-09-09T03:58:54.905Z,0.00
2018-09-09T03:59:54.886Z,0.00
2018-09-09T04:00:54.837Z,0.00
2018-09-09T04:01:54.800Z,0.00
2018-09-09T04:02:54.756Z,0.00
2018-09-09T04:03:54.724Z,0.00
2018-09-09T04:04:54.701Z,0.00
2018-09-09T04:05:54.687Z,0.00
2018-09-09T04:06:54.615Z,0.00
2018-09-09T04:07:54.616Z,0.00
2018-09-09T04:08:54.526Z,0.00
2018-09-09T04:09:54.499Z,0.00
2018-09-09T04:10:54.451Z,0.00
2018-09-09T04:11:54.429Z,0.00
2018-09-09T04:12:54.376Z,0.00
2018-09-09T04:13:54.371Z,0.00
2018-09-09T04:14:54.301Z,0.00
2018-09-09T04:15:54.266Z,0.00
2018-09-09T04:16:54.227Z,0.00
2018-09-09T04:17:54.195Z,0.00
2018-09-09T04:18:54.155Z,0.00
2018-09-09T04:19:54.154Z,0.00
2018-09-09T04:20:54.093Z,0.00
2018-09-09T04:21:54.027Z,0.00
2018-09-09T04:22:54.005Z,0.00
2018-09-09T04:23:53.970Z,0.00
2018-09-09T04:24:53.923Z,0.00
2018-09-09T04:25:53.876Z,0.00
2018-09-09T04:26:53.843Z,5.63
2018-09-09T04:27:53.908Z,5.63
2018-09-09T04:28:53.811Z,5.63
2018-09-09T04:29:53.744Z,5.63
2018-09-09T04:30:53.726Z,5.63
2018-09-09T04:31:53.654Z,5.63
2018-09-09T04:32:53.654Z,11.25
2018-09-09T04:33:53.591Z,11.25
2018-09-09T04:34:53.543Z,11.25
2018-09-09T04:35:53.536Z,11.25
2018-09-09T04:36:53.526Z,16.88
2018-09-09T04:37:53.443Z,16.88
2018-09-09T04:38:53.383Z,16.88
2018-09-09T04:39:53.342Z,22.50
2018-09-09T04:40:53.348Z,22.50
2018-09-09T04:41:53.270Z,28.13
2018-09-09T04:42:53.229Z,33.75
2018-09-09T04:43:53.200Z,39.38
2018-09-09T04:44:53.152Z,39.38
2018-09-09T04:45:53.106Z,45.00
2018-09-09T04:46:53.100Z,50.63
2018-09-09T04:47:53.031Z,56.25
2018-09-09T04:48:53.002Z,61.88
2018-09-09T04:49:53.010Z,67.50
2018-09-09T04:50:52.920Z,67.50
2018-09-09T04:51:52.883Z,73.13
2018-09-09T04:52:52.840Z,84.38
2018-09-09T04:53:52.810Z,90.00
2018-09-09T04:54:52.768Z,95.63
2018-09-09T04:55:52.748Z,101.25
2018-09-09T04:56:52.687Z,101.25
2018-09-09T04:57:52.648Z,101.25
2018-09-09T04:58:52.615Z,101.25
2018-09-09T04:59:52.564Z,106.88
2018-09-09T05:00:52.552Z,106.88
2018-09-09T05:01:52.506Z,112.50
2018-09-09T05:02:52.466Z,112.50
2018-09-09T05:03:52.429Z,118.13
2018-09-09T05:04:52.389Z,123.75
2018-09-09T05:05:52.346Z,129.38
2018-09-09T05:06:52.301Z,135.00
2018-09-09T05:07:52.286Z,140.63
2018-09-09T05:08:52.231Z,140.63
2018-09-09T05:09:52.205Z,140.63
2018-09-09T05:10:52.156Z,140.63
2018-09-09T05:11:52.180Z,140.63
2018-09-09T05:12:52.077Z,146.25
2018-09-09T05:13:52.076Z,151.88
2018-09-09T05:14:51.995Z,157.50
2018-09-09T05:15:51.968Z,163.13
2018-09-09T05:16:51.975Z,174.38
2018-09-09T05:17:51.878Z,174.38
2018-09-09T05:18:51.952Z,174.38
2018-09-09T05:19:51.809Z,174.38
2018-09-09T05:20:51.778Z,168.75
2018-09-09T05:21:51.727Z,163.13
2018-09-09T05:22:51.713Z,163.13
2018-09-09T05:23:51.659Z,157.50
2018-09-09T05:24:51.619Z,157.50
2018-09-09T05:25:51.703Z,157.50
2018-09-09T05:26:51.579Z,163.13
2018-09-09T05:27:51.499Z,174.38
2018-09-09T05:28:51.480Z,180.00
2018-09-09T05:29:51.478Z,191.25
2018-09-09T05:30:51.405Z,196.88
2018-09-09T05:31:51.407Z,208.13
2018-09-09T05:32:51.323Z,219.38
2018-09-09T05:33:51.285Z,230.63
2018-09-09T05:34:51.244Z,241.88
2018-09-09T05:35:51.229Z,253.13
2018-09-09T05:36:51.222Z,270.00
2018-09-09T05:37:51.155Z,275.63
2018-09-09T05:38:51.093Z,286.88
2018-09-09T05:39:51.045Z,298.13
2018-09-09T05:40:51.013Z,298.13
2018-09-09T05:41:51.001Z,298.13
2018-09-09T05:42:50.955Z,298.13
2018-09-09T05:43:50.950Z,298.13
2018-09-09T05:44:51.131Z,292.50
2018-09-09T05:45:50.837Z,286.88
2018-09-09T05:46:50.782Z,286.88
2018-09-09T05:47:50.768Z,281.25
2018-09-09T05:48:50.718Z,281.25
2018-09-09T05:49:50.712Z,281.25
2018-09-09T05:50:50.655Z,275.63
2018-09-09T05:51:50.595Z,270.00
2018-09-09T05:52:50.570Z,270.00
2018-09-09T05:53:50.587Z,264.38
2018-09-09T05:54:50.515Z,270.00
2018-09-09T05:55:50.477Z,275.63
2018-09-09T05:56:50.418Z,286.88
2018-09-09T05:57:50.457Z,298.13
2018-09-09T05:58:50.396Z,320.63
2018-09-09T05:59:50.316Z,348.75
2018-09-09T06:00:50.271Z,371.25
2018-09-09T06:01:50.251Z,393.75
2018-09-09T06:02:50.200Z,410.63
2018-09-09T06:03:50.179Z,421.88
2018-09-09T06:04:50.121Z,427.50
2018-09-09T06:05:50.132Z,427.50
2018-09-09T06:06:50.084Z,433.13
2018-09-09T06:07:50.004Z,438.75
2018-09-09T06:08:50.005Z,455.63
2018-09-09T06:09:49.946Z,472.50
2018-09-09T06:10:49.931Z,489.38
2018-09-09T06:11:49.861Z,506.25
2018-09-09T06:12:49.885Z,523.13
2018-09-09T06:13:49.848Z,540.00
2018-09-09T06:14:49.757Z,556.88
2018-09-09T06:15:49.756Z,568.13
2018-09-09T06:16:49.717Z,585.00
2018-09-09T06:17:49.639Z,573.75
2018-09-09T06:18:49.620Z,573.75
2018-09-09T06:19:49.569Z,573.75
2018-09-09T06:20:49.555Z,568.13
2018-09-09T06:21:49.507Z,568.13
2018-09-09T06:22:49.477Z,556.88
2018-09-09T06:23:49.427Z,556.88
2018-09-09T06:24:49.383Z,568.13
2018-09-09T06:25:49.339Z,585.00
2018-09-09T06:26:49.365Z,607.50
2018-09-09T06:27:49.333Z,635.63
2018-09-09T06:28:49.253Z,652.50
2018-09-09T06:29:49.206Z,669.38
2018-09-09T06:30:49.260Z,686.25
2018-09-09T06:31:49.131Z,714.38
2018-09-09T06:32:49.112Z,748.13
2018-09-09T06:33:49.102Z,781.88
2018-09-09T06:34:49.034Z,810.00
2018-09-09T06:35:48.983Z,832.50
2018-09-09T06:36:48.949Z,832.50
2018-09-09T06:37:48.909Z,838.13
2018-09-09T06:38:48.882Z,838.13
2018-09-09T06:39:48.845Z,832.50
2018-09-09T06:40:48.820Z,838.13
2018-09-09T06:41:48.777Z,821.25
2018-09-09T06:42:48.746Z,798.75
2018-09-09T06:43:48.702Z,787.50
2018-09-09T06:44:48.679Z,753.75
2018-09-09T06:45:48.663Z,731.25
2018-09-09T06:46:48.639Z,720.00
2018-09-09T06:47:48.561Z,742.50
2018-09-09T06:48:48.567Z,731.25
2018-09-09T06:49:48.511Z,680.63
2018-09-09T06:50:48.474Z,635.63
2018-09-09T06:51:48.427Z,646.88
2018-09-09T06:52:48.404Z,658.13
2018-09-09T06:53:48.386Z,675.00
2018-09-09T06:54:48.332Z,703.13
2018-09-09T06:55:48.306Z,736.88
2018-09-09T06:56:48.253Z,770.63
2018-09-09T06:57:48.266Z,798.75
2018-09-09T06:58:48.215Z,821.25
2018-09-09T06:59:48.220Z,849.38
2018-09-09T07:00:48.125Z,860.63
2018-09-09T07:01:48.086Z,877.50
2018-09-09T07:02:48.048Z,911.25
2018-09-09T07:03:48.020Z,939.38
2018-09-09T07:04:47.984Z,916.88
2018-09-09T07:05:47.953Z,905.63
2018-09-09T07:06:47.909Z,894.38
2018-09-09T07:07:47.893Z,888.75
2018-09-09T07:08:47.841Z,950.63
2018-09-09T07:09:47.811Z,1096.88
2018-09-09T07:10:47.910Z,1271.25
2018-09-09T07:11:47.910Z,1276.88
2018-09-09T07:12:47.718Z,1023.75
2018-09-09T07:13:47.681Z,995.63
2018-09-09T07:14:47.642Z,1091.25
2018-09-09T07:15:47.615Z,1119.38
2018-09-09T07:16:47.613Z,1231.88
2018-09-09T07:17:47.550Z,1305.00
2018-09-09T07:18:47.532Z,1406.25
2018-09-09T07:19:47.524Z,1479.38
2018-09-09T07:20:47.449Z,1057.50
2018-09-09T07:21:47.470Z,1130.63
2018-09-09T07:22:47.442Z,945.00
2018-09-09T07:23:47.364Z,900.00
2018-09-09T07:24:47.322Z,883.13
2018-09-09T07:25:47.287Z,888.75
2018-09-09T07:26:47.327Z,894.38
2018-09-09T07:27:47.231Z,905.63
2018-09-09T07:28:47.196Z,933.75
2018-09-09T07:29:47.173Z,967.50
2018-09-09T07:30:47.125Z,990.00
2018-09-09T07:31:47.139Z,1023.75
2018-09-09T07:32:47.078Z,1074.38
2018-09-09T07:33:47.550Z,1113.75
2018-09-09T07:34:47.015Z,1203.75
2018-09-09T07:35:46.990Z,1479.38
2018-09-09T07:36:46.932Z,1265.63
2018-09-09T07:37:46.912Z,1299.38
2018-09-09T07:38:46.864Z,1265.63
2018-09-09T07:39:46.855Z,1333.13
2018-09-09T07:40:46.830Z,1316.25
2018-09-09T07:41:46.832Z,1355.63
2018-09-09T07:42:46.767Z,1237.50
2018-09-09T07:43:46.716Z,1203.75
2018-09-09T07:44:46.684Z,1186.88
2018-09-09T07:45:46.657Z,1158.75
2018-09-09T07:46:46.614Z,1198.13
2018-09-09T07:47:46.597Z,1102.50
2018-09-09T07:48:46.555Z,1001.25
2018-09-09T07:49:46.587Z,956.25
2018-09-09T07:50:46.569Z,1057.50
2018-09-09T07:51:46.491Z,1113.75
2018-09-09T07:52:46.429Z,1006.88
2018-09-09T07:53:46.393Z,967.50
2018-09-09T07:54:46.366Z,1023.75
2018-09-09T07:55:46.340Z,1091.25
2018-09-09T07:56:46.308Z,1170.00
2018-09-09T07:57:46.270Z,1248.75
2018-09-09T07:58:46.268Z,1344.38
2018-09-09T07:59:46.247Z,1400.63
2018-09-09T08:00:46.264Z,1468.13
2018-09-09T08:01:46.156Z,1462.50
2018-09-09T08:02:46.141Z,1490.63
2018-09-09T08:03:46.090Z,1546.88
2018-09-09T08:04:46.069Z,1440.00
2018-09-09T08:05:46.021Z,1400.63
2018-09-09T08:06:45.999Z,1378.13
2018-09-09T08:07:45.967Z,1378.13
2018-09-09T08:08:45.932Z,1411.88
2018-09-09T08:09:45.905Z,1434.38
2018-09-09T08:10:45.880Z,1473.75
2018-09-09T08:11:45.852Z,1496.25
2018-09-09T08:12:45.894Z,1535.63
2018-09-09T08:13:45.843Z,1642.50
2018-09-09T08:14:45.791Z,1777.50
2018-09-09T08:15:45.722Z,1906.88
2018-09-09T08:16:45.745Z,1918.13
2018-09-09T08:17:45.699Z,2070.00
2018-09-09T08:18:45.658Z,1901.25
2018-09-09T08:19:45.635Z,1912.50
2018-09-09T08:20:45.612Z,1845.00
2018-09-09T08:21:45.592Z,1788.75
2018-09-09T08:22:45.560Z,1755.00
2018-09-09T08:23:45.570Z,1704.38
2018-09-09T08:24:45.573Z,1642.50
2018-09-09T08:25:45.500Z,1620.00
2018-09-09T08:26:45.549Z,1591.88
2018-09-09T08:27:45.474Z,1558.13
2018-09-09T08:28:45.387Z,1513.13
2018-09-09T08:29:45.363Z,1507.50
2018-09-09T08:30:45.441Z,1518.75
2018-09-09T08:31:45.310Z,1530.00
2018-09-09T08:32:45.286Z,1518.75
2018-09-09T08:33:45.677Z,1479.38
2018-09-09T08:34:45.334Z,1423.13
2018-09-09T08:35:45.692Z,1366.88
2018-09-09T08:36:45.179Z,1327.50
2018-09-09T08:37:45.134Z,1305.00
2018-09-09T08:38:45.172Z,1299.38
2018-09-09T08:39:45.120Z,1316.25
2018-09-09T08:40:45.057Z,1344.38
2018-09-09T08:41:45.051Z,1423.13
2018-09-09T08:42:44.994Z,1591.88
2018-09-09T08:43:45.016Z,1687.50
2018-09-09T08:44:44.996Z,1676.25
2018-09-09T08:45:44.902Z,1755.00
2018-09-09T08:46:44.868Z,1985.63
2018-09-09T08:47:44.884Z,1929.38
2018-09-09T08:48:44.827Z,2109.38
2018-09-09T08:49:44.800Z,2193.75
2018-09-09T08:50:44.834Z,2002.50
2018-09-09T08:51:44.747Z,2013.75
2018-09-09T08:52:44.716Z,2047.50
2018-09-09T08:53:44.694Z,2328.75
2018-09-09T08:54:44.665Z,2036.25
2018-09-09T08:55:44.606Z,2120.63
2018-09-09T08:56:44.587Z,2041.88
2018-09-09T08:57:44.572Z,1878.75
2018-09-09T08:58:44.572Z,1890.00
2018-09-09T08:59:44.573Z,1946.25
2018-09-09T09:00:44.510Z,2233.13
2018-09-09T09:01:44.484Z,2660.63
2018-09-09T09:02:44.447Z,1951.88
2018-09-09T09:03:44.426Z,1513.13
2018-09-09T09:04:44.445Z,1423.13
2018-09-09T09:05:44.389Z,1366.88
2018-09-09T09:06:44.324Z,1333.13
2018-09-09T09:07:44.421Z,1299.38
2018-09-09T09:08:44.261Z,1271.25
2018-09-09T09:09:44.291Z,1243.13
2018-09-09T09:10:44.270Z,1209.38
2018-09-09T09:11:44.301Z,1164.38
2018-09-09T09:12:44.162Z,1125.00
2018-09-09T09:13:44.156Z,1074.38
2018-09-09T09:14:44.145Z,1029.38
2018-09-09T09:15:44.089Z,1001.25
2018-09-09T09:16:44.086Z,984.38
2018-09-09T09:17:44.106Z,990.00
2018-09-09T09:18:44.081Z,1018.13
2018-09-09T09:19:43.960Z,1051.88
2018-09-09T09:20:43.990Z,1102.50
2018-09-09T09:21:43.949Z,1136.25
2018-09-09T09:22:43.903Z,1175.63
2018-09-09T09:23:43.923Z,1220.63
2018-09-09T09:24:43.834Z,1276.88
2018-09-09T09:25:43.798Z,1333.13
2018-09-09T09:26:43.775Z,1423.13
2018-09-09T09:27:43.734Z,1468.13
2018-09-09T09:28:43.722Z,1524.38
2018-09-09T09:29:43.692Z,1642.50
2018-09-09T09:30:43.798Z,1648.13
2018-09-09T09:31:43.626Z,1659.38
2018-09-09T09:32:43.616Z,1665.00
2018-09-09T09:33:43.594Z,1665.00
2018-09-09T09:34:43.624Z,1670.63
2018-09-09T09:35:43.531Z,1665.00
2018-09-09T09:36:43.549Z,1653.75
2018-09-09T09:37:43.455Z,1670.63
2018-09-09T09:38:43.451Z,1648.13
2018-09-09T09:39:43.410Z,1653.75
2018-09-09T09:40:43.401Z,1681.88
2018-09-09T09:41:43.347Z,1653.75
2018-09-09T09:42:43.318Z,1625.63
2018-09-09T09:43:43.291Z,1636.88
2018-09-09T09:44:43.340Z,1608.75
2018-09-09T09:45:43.236Z,1665.00
2018-09-09T09:46:43.200Z,1693.13
2018-09-09T09:47:43.177Z,1681.88
2018-09-09T09:48:43.157Z,1653.75
2018-09-09T09:49:43.119Z,1614.38
2018-09-09T09:50:43.137Z,1620.00
2018-09-09T09:51:43.066Z,1591.88
2018-09-09T09:52:43.046Z,1569.38
2018-09-09T09:53:43.029Z,1563.75
2018-09-09T09:54:42.984Z,1575.00
2018-09-09T09:55:42.951Z,1575.00
2018-09-09T09:56:42.931Z,1603.13
2018-09-09T09:57:42.891Z,1636.88
2018-09-09T09:58:42.869Z,1698.75
2018-09-09T09:59:42.835Z,1771.88
2018-09-09T10:00:42.803Z,1856.25
2018-09-09T10:01:42.787Z,1845.00
2018-09-09T10:02:42.774Z,1777.50
2018-09-09T10:03:42.765Z,1710.00
2018-09-09T10:04:42.720Z,1693.13
2018-09-09T10:05:42.681Z,1625.63
2018-09-09T10:06:42.726Z,1665.00
2018-09-09T10:07:42.684Z,1828.13
2018-09-09T10:08:42.611Z,1580.63
2018-09-09T10:09:42.566Z,1575.00
2018-09-09T10:10:42.535Z,1636.88
2018-09-09T10:11:42.498Z,1794.38
2018-09-09T10:12:42.482Z,1811.25
2018-09-09T10:13:42.475Z,1816.88
2018-09-09T10:14:42.421Z,1794.38
2018-09-09T10:15:42.392Z,1755.00
2018-09-09T10:16:42.356Z,1800.00
2018-09-09T10:17:42.379Z,1895.63
2018-09-09T10:18:42.330Z,2137.50
2018-09-09T10:19:42.278Z,2255.63
2018-09-09T10:20:42.316Z,2688.75
2018-09-09T10:21:42.232Z,2469.38
2018-09-09T10:22:42.201Z,3178.13
2018-09-09T10:23:42.229Z,2548.13
2018-09-09T10:24:42.169Z,2205.00
2018-09-09T10:25:42.156Z,2030.63
2018-09-09T10:26:42.098Z,2362.50
2018-09-09T10:27:42.110Z,2615.63
2018-09-09T10:28:42.039Z,2491.88
2018-09-09T10:29:42.031Z,1935.00
2018-09-09T10:30:41.982Z,2019.38
2018-09-09T10:31:42.021Z,2407.50
2018-09-09T10:32:41.982Z,1890.00
2018-09-09T10:33:41.930Z,1766.25
2018-09-09T10:34:41.908Z,1788.75
2018-09-09T10:35:41.901Z,1800.00
2018-09-09T10:36:41.834Z,1794.38
2018-09-09T10:37:41.790Z,1760.63
2018-09-09T10:38:41.770Z,1833.75
2018-09-09T10:39:41.754Z,2036.25
2018-09-09T10:40:41.728Z,1946.25
2018-09-09T10:41:41.692Z,1929.38
2018-09-09T10:42:41.730Z,2064.38
2018-09-09T10:43:41.692Z,1890.00
2018-09-09T10:44:41.633Z,2413.13
2018-09-09T10:45:41.623Z,2643.75
2018-09-09T10:46:41.644Z,2525.63
2018-09-09T10:47:41.541Z,2328.75
2018-09-09T10:48:41.521Z,2390.63
2018-09-09T10:49:41.490Z,2126.25
2018-09-09T10:50:41.452Z,2340.00
2018-09-09T10:51:41.463Z,3161.25
2018-09-09T10:52:41.473Z,4078.13
2018-09-09T10:53:41.374Z,4725.00
2018-09-09T10:54:41.359Z,3262.50
2018-09-09T10:55:41.376Z,2784.38
2018-09-09T10:56:41.309Z,2733.75
2018-09-09T10:57:41.271Z,2081.25
2018-09-09T10:58:41.262Z,2154.38
2018-09-09T10:59:41.292Z,2773.13
2018-09-09T11:00:41.209Z,3605.63
2018-09-09T11:01:41.203Z,1963.13
2018-09-09T11:02:41.166Z,2058.75
2018-09-09T11:03:41.130Z,2126.25
2018-09-09T11:04:41.077Z,2143.13
2018-09-09T11:05:41.061Z,2165.63
2018-09-09T11:06:41.052Z,2115.00
2018-09-09T11:07:41.029Z,2216.25
2018-09-09T11:08:41.003Z,2385.00
2018-09-09T11:09:40.955Z,3307.50
2018-09-09T11:10:41.317Z,3290.63
2018-09-09T11:11:40.975Z,3718.13
2018-09-09T11:12:40.927Z,5090.63
2018-09-09T11:13:40.961Z,4561.88
2018-09-09T11:14:40.848Z,2356.88
2018-09-09T11:15:40.835Z,4550.63
2018-09-09T11:16:40.792Z,4567.50
2018-09-09T11:17:40.784Z,4646.25
2018-09-09T11:18:40.745Z,4061.25
2018-09-09T11:19:40.726Z,4156.88
2018-09-09T11:20:40.687Z,4966.88
2018-09-09T11:21:40.660Z,4314.38
2018-09-09T11:22:40.669Z,4089.38
2018-09-09T11:23:40.701Z,3836.25
2018-09-09T11:24:40.618Z,4111.88
2018-09-09T11:25:40.583Z,4516.88
2018-09-09T11:26:40.591Z,4151.25
2018-09-09T11:27:40.559Z,2733.75
2018-09-09T11:28:40.503Z,2739.38
2018-09-09T11:29:40.483Z,2705.63
2018-09-09T11:30:40.468Z,3931.88
2018-09-09T11:31:40.427Z,3611.25
2018-09-09T11:32:40.403Z,3448.13
2018-09-09T11:33:40.401Z,4213.13
2018-09-09T11:34:40.351Z,2992.50
2018-09-09T11:35:40.389Z,2452.50
2018-09-09T11:36:40.324Z,2396.25
2018-09-09T11:37:40.306Z,2323.13
2018-09-09T11:38:40.268Z,2368.13
2018-09-09T11:39:40.257Z,2643.75
2018-09-09T11:40:40.277Z,2328.75
2018-09-09T11:41:40.211Z,2385.00
2018-09-09T11:42:40.185Z,2531.25
2018-09-09T11:43:40.178Z,2638.13
2018-09-09T11:44:40.243Z,2728.13
2018-09-09T11:45:40.123Z,2683.13
2018-09-09T11:46:40.103Z,2514.38
2018-09-09T11:47:40.075Z,2413.13
2018-09-09T11:48:40.114Z,2750.63
2018-09-09T11:49:40.047Z,3138.75
2018-09-09T11:50:40.058Z,3290.63
2018-09-09T11:51:39.981Z,2941.88
2018-09-09T11:52:39.987Z,3256.88
2018-09-09T11:53:39.935Z,4021.88
2018-09-09T11:54:39.910Z,3532.50
2018-09-09T11:55:39.877Z,3183.75
2018-09-09T11:56:39.863Z,3020.63
2018-09-09T11:57:39.861Z,2840.63
2018-09-09T11:58:39.812Z,2615.63
2018-09-09T11:59:39.795Z,2615.63
2018-09-09T12:00:39.796Z,2503.13
2018-09-09T12:01:39.762Z,2666.25
2018-09-09T12:02:39.720Z,2688.75
2018-09-09T12:03:39.708Z,2576.25
2018-09-09T12:04:39.684Z,2463.75
2018-09-09T12:05:39.667Z,2520.00
2018-09-09T12:06:39.640Z,2542.50
2018-09-09T12:07:39.619Z,2638.13
2018-09-09T12:08:39.680Z,2649.38
2018-09-09T12:09:39.614Z,2621.25
2018-09-09T12:10:39.546Z,2632.50
2018-09-09T12:11:39.520Z,2570.63
2018-09-09T12:12:39.528Z,2626.88
2018-09-09T12:13:39.497Z,2632.50
2018-09-09T12:14:39.475Z,2441.25
2018-09-09T12:15:39.408Z,2491.88
2018-09-09T12:16:39.392Z,2334.38
2018-09-09T12:17:39.387Z,2199.38
2018-09-09T12:18:39.348Z,2148.75
2018-09-09T12:19:39.355Z,2092.50
2018-09-09T12:20:39.307Z,2075.63
2018-09-09T12:21:39.298Z,2064.38
2018-09-09T12:22:39.291Z,2058.75
2018-09-09T12:23:39.324Z,2053.13
2018-09-09T12:24:39.221Z,2075.63
2018-09-09T12:25:39.223Z,2092.50
2018-09-09T12:26:39.162Z,2120.63
2018-09-09T12:27:39.148Z,2171.25
2018-09-09T12:28:39.112Z,2205.00
2018-09-09T12:29:39.099Z,2255.63
2018-09-09T12:30:39.681Z,2323.13
2018-09-09T12:31:39.051Z,2418.75
2018-09-09T12:32:39.068Z,2621.25
2018-09-09T12:33:39.003Z,2677.50
2018-09-09T12:34:39.015Z,3088.13
2018-09-09T12:35:38.967Z,2970.00
2018-09-09T12:36:38.927Z,2801.25
2018-09-09T12:37:38.941Z,3043.13
2018-09-09T12:38:38.890Z,2632.50
2018-09-09T12:39:38.872Z,2790.00
2018-09-09T12:40:38.838Z,2761.88
2018-09-09T12:41:38.816Z,2666.25
2018-09-09T12:42:38.792Z,2677.50